Kezdőlap
METAR-TAF:

METAR-TAF

Repülőterek :

Kangiqsualujjuaq, Québec, Kanada

földrajzi szélesség: 58-43N, földrajzi hosszúság: 065-59W, magasság: 60 m

Jelenlegi meteorológiai megfigyelések

A jelentés 47 perccel ezelõtt készült, 18:00 UTC
Nyugat-északnyugati szél 3 kt
Hőmérséklet -8°C
Páratartalom 73%
Légköri nyomás 1043 hPa
Látótávolság: 24.1 km
Szakadozott felhőzet 21000 lábon

METAR: CYLU 011800Z 29003KT 15SM BKN210 M08/M12 A3081 RMK CC7 SLP442

Idő: 14:47 (18:47 UTC)


TAF: hiányzik

Meteorológiai megfigyelések és előrejelzések több, mint 4000 repülőtéren (METAR és TAF jelentéseket).

A térképen piros és sárga pontok jelzik az elérhető meteorológiai állomásokat.

Mozgassa az egeret a pont fölött, hogy megjelenjen az állomás neve.

Azután kattintson az időjárási megfigyelések és előrejelzések megtekintéséhez.

A térkép megváltoztatása: kattintson a fekete keresztel jelölt zöld gombra ráközelítéshez, a vonallal jelölt zöld gombra távolításhoz, vagy a zöld nyilakra a szomszédos térképek eléréséhez.


METAR-TAF: